createdAt,value
2023-03-22T00:01:43.312Z,9.28
2023-03-22T00:04:12.413Z,9.26
2023-03-22T00:06:40.155Z,9.24
2023-03-22T00:09:07.843Z,9.21
2023-03-22T00:11:35.517Z,9.17
2023-03-22T00:14:03.278Z,9.18
2023-03-22T00:16:30.948Z,9.15
2023-03-22T00:18:58.660Z,9.11
2023-03-22T00:21:27.809Z,9.09
2023-03-22T00:23:55.642Z,9.11
2023-03-22T00:26:23.317Z,9.06
2023-03-22T00:28:50.972Z,9.08
2023-03-22T00:31:19.934Z,9.05
2023-03-22T00:33:47.616Z,9.07
2023-03-22T00:36:15.301Z,9.04
2023-03-22T00:38:44.904Z,9.11
2023-03-22T00:41:15.911Z,9.06
2023-03-22T00:43:43.784Z,9.02
2023-03-22T00:46:12.778Z,9.01
2023-03-22T00:48:40.685Z,9.08
2023-03-22T00:51:09.599Z,9.03
2023-03-22T00:53:37.618Z,9.02
2023-03-22T00:56:07.928Z,9.03
2023-03-22T00:58:35.639Z,9.02
2023-03-22T01:01:03.257Z,9.03
2023-03-22T01:03:31.025Z,8.99
2023-03-22T01:05:58.759Z,9.07
2023-03-22T01:08:32.841Z,9.02
2023-03-22T01:11:01.438Z,9.05
2023-03-22T01:13:30.557Z,9.05
2023-03-22T01:15:58.302Z,9.00
2023-03-22T01:18:25.980Z,8.96
2023-03-22T01:20:53.630Z,8.94
2023-03-22T01:23:21.454Z,8.91
2023-03-22T01:25:49.101Z,8.90
2023-03-22T01:28:16.876Z,8.90
2023-03-22T01:30:45.903Z,8.95
2023-03-22T01:33:13.613Z,8.87
2023-03-22T01:35:41.226Z,8.86
2023-03-22T01:38:08.890Z,8.79
2023-03-22T01:40:36.532Z,8.85
2023-03-22T01:43:04.456Z,8.83
2023-03-22T01:45:38.804Z,8.82
2023-03-22T01:48:13.529Z,8.88
2023-03-22T01:50:45.581Z,8.93
2023-03-22T01:53:18.804Z,8.89
2023-03-22T01:55:47.794Z,8.85
2023-03-22T01:58:18.048Z,8.83
2023-03-22T02:00:47.523Z,8.80
2023-03-22T02:03:23.805Z,8.85
2023-03-22T02:05:51.542Z,8.85
2023-03-22T02:08:19.582Z,8.83
2023-03-22T02:10:47.287Z,8.80
2023-03-22T02:13:42.287Z,8.85
2023-03-22T02:16:23.597Z,8.81
2023-03-22T02:19:05.864Z,8.85
2023-03-22T02:22:04.306Z,8.78
2023-03-22T02:25:08.394Z,8.81
2023-03-22T02:28:00.326Z,8.81
2023-03-22T02:31:01.911Z,8.74
2023-03-22T02:34:05.202Z,8.74
2023-03-22T02:36:53.708Z,8.73
2023-03-22T02:39:32.771Z,8.77
2023-03-22T02:42:13.875Z,8.72
2023-03-22T02:44:43.935Z,8.75
2023-03-22T02:47:23.329Z,8.71
2023-03-22T02:49:57.796Z,8.72
2023-03-22T02:52:31.782Z,8.65
2023-03-22T02:55:07.412Z,8.60
2023-03-22T02:57:39.137Z,8.55
2023-03-22T03:00:12.371Z,8.55
2023-03-22T03:02:46.866Z,8.58
2023-03-22T03:05:15.914Z,8.57
2023-03-22T03:07:46.177Z,8.54
2023-03-22T03:10:17.796Z,8.53
2023-03-22T03:12:45.778Z,8.42
2023-03-22T03:15:16.525Z,8.41
2023-03-22T03:18:00.491Z,8.39
2023-03-22T03:20:42.428Z,8.36
2023-03-22T03:23:19.781Z,8.31
2023-03-22T03:25:58.365Z,8.30
2023-03-22T03:28:38.395Z,8.27
2023-03-22T03:31:16.077Z,8.32
2023-03-22T03:33:50.131Z,8.34
2023-03-22T03:36:19.434Z,8.33
2023-03-22T03:38:50.524Z,8.23
2023-03-22T03:41:23.117Z,8.18
2023-03-22T03:43:51.969Z,8.23
2023-03-22T03:46:20.101Z,8.24
2023-03-22T03:48:50.857Z,8.22
2023-03-22T03:51:18.729Z,8.18
2023-03-22T03:53:47.098Z,8.18
2023-03-22T03:56:14.787Z,8.26
2023-03-22T03:58:43.844Z,8.16
2023-03-22T04:01:12.159Z,8.20
2023-03-22T04:03:39.829Z,8.08
2023-03-22T04:06:08.864Z,7.99
2023-03-22T04:08:36.581Z,7.99
2023-03-22T04:11:04.301Z,8.11
2023-03-22T04:13:32.016Z,8.00
2023-03-22T04:16:02.185Z,8.02
2023-03-22T04:18:30.134Z,8.02
2023-03-22T04:20:58.124Z,7.99
2023-03-22T04:23:25.910Z,7.98
2023-03-22T04:25:54.534Z,7.88
2023-03-22T04:28:23.953Z,7.83
2023-03-22T04:30:52.474Z,7.92
2023-03-22T04:33:22.701Z,7.96
2023-03-22T04:35:56.601Z,7.95
2023-03-22T04:38:25.173Z,7.92
2023-03-22T04:40:52.794Z,7.84
2023-03-22T04:43:20.467Z,7.85
2023-03-22T04:45:48.780Z,7.85
2023-03-22T04:48:17.494Z,7.80
2023-03-22T04:50:46.503Z,7.75
2023-03-22T04:53:14.180Z,7.79
2023-03-22T04:55:42.941Z,7.78
2023-03-22T04:58:10.603Z,7.78
2023-03-22T05:00:38.920Z,7.75
2023-03-22T05:03:06.847Z,7.69
2023-03-22T05:05:34.675Z,7.79
2023-03-22T05:08:03.724Z,7.71
2023-03-22T05:10:31.389Z,7.79
2023-03-22T05:12:58.997Z,7.85
2023-03-22T05:15:26.742Z,7.84
2023-03-22T05:17:55.732Z,7.88
2023-03-22T05:20:23.513Z,7.81
2023-03-22T05:22:51.250Z,7.76
2023-03-22T05:25:20.399Z,7.84
2023-03-22T05:27:50.176Z,7.83
2023-03-22T05:30:17.852Z,7.75
2023-03-22T05:32:45.850Z,7.74
2023-03-22T05:35:14.079Z,7.75
2023-03-22T05:37:42.273Z,7.77
2023-03-22T05:40:11.411Z,7.82
2023-03-22T05:42:40.406Z,7.86
2023-03-22T05:45:09.486Z,7.79
2023-03-22T05:47:39.335Z,7.78
2023-03-22T05:50:08.639Z,7.94
2023-03-22T05:52:36.577Z,7.92
2023-03-22T05:55:04.956Z,7.97
2023-03-22T05:57:32.615Z,7.94
2023-03-22T06:00:01.805Z,7.95
2023-03-22T06:02:29.678Z,7.92
2023-03-22T06:04:57.358Z,7.89
2023-03-22T06:07:25.357Z,7.93
2023-03-22T06:09:53.086Z,8.00
2023-03-22T06:12:24.487Z,8.07
2023-03-22T06:14:52.250Z,8.05
2023-03-22T06:17:21.501Z,8.04
2023-03-22T06:19:50.827Z,7.97
2023-03-22T06:22:20.109Z,8.01
2023-03-22T06:24:48.080Z,8.00
2023-03-22T06:27:15.737Z,8.00
2023-03-22T06:29:43.404Z,8.08
2023-03-22T06:32:11.346Z,8.12
2023-03-22T06:34:40.405Z,8.09
2023-03-22T06:37:08.147Z,8.00
2023-03-22T06:39:35.947Z,8.02
2023-03-22T06:42:03.588Z,8.23
2023-03-22T06:44:31.280Z,8.22
2023-03-22T06:46:58.956Z,8.20
2023-03-22T06:49:27.791Z,8.24
2023-03-22T06:51:56.757Z,8.32
2023-03-22T06:54:24.547Z,8.20
2023-03-22T06:56:52.204Z,8.21
2023-03-22T06:59:19.867Z,8.32
2023-03-22T07:01:48.248Z,8.30
2023-03-22T07:04:15.954Z,8.28
2023-03-22T07:06:43.751Z,8.40
2023-03-22T07:09:12.831Z,8.34
2023-03-22T07:11:40.591Z,8.44
2023-03-22T07:14:08.300Z,8.51
2023-03-22T07:16:36.020Z,8.50
2023-03-22T07:19:04.220Z,8.57
2023-03-22T07:21:31.904Z,8.57
2023-03-22T07:23:59.602Z,8.56
2023-03-22T07:26:30.469Z,8.59
2023-03-22T07:28:58.359Z,8.55
2023-03-22T07:31:26.004Z,8.53
2023-03-22T07:33:53.625Z,8.64
2023-03-22T07:36:23.909Z,8.70
2023-03-22T07:38:52.027Z,8.67
2023-03-22T07:41:19.740Z,8.72
2023-03-22T07:43:56.681Z,8.72
2023-03-22T07:46:27.920Z,8.84
2023-03-22T07:49:05.462Z,8.92
2023-03-22T07:51:33.131Z,8.96
2023-03-22T07:54:01.564Z,9.11
2023-03-22T07:56:29.218Z,9.03
2023-03-22T07:58:58.293Z,9.02
2023-03-22T08:01:26.689Z,9.07
2023-03-22T08:03:54.402Z,9.08
2023-03-22T08:06:22.063Z,9.27
2023-03-22T08:08:49.734Z,9.30
2023-03-22T08:11:17.523Z,9.39
2023-03-22T08:13:45.244Z,9.45
2023-03-22T08:16:14.279Z,9.46
2023-03-22T08:18:44.251Z,9.57
2023-03-22T08:21:12.664Z,9.67
2023-03-22T08:23:42.156Z,9.80
2023-03-22T08:26:11.086Z,9.91
2023-03-22T08:28:38.827Z,9.88
2023-03-22T08:31:13.936Z,9.83
2023-03-22T08:33:44.360Z,10.02
2023-03-22T08:36:14.485Z,9.95
2023-03-22T08:38:42.888Z,9.96
2023-03-22T08:41:10.699Z,10.06
2023-03-22T08:43:38.635Z,10.02
2023-03-22T08:46:06.878Z,10.18
2023-03-22T08:48:35.718Z,10.21
2023-03-22T08:51:06.143Z,10.28
2023-03-22T08:53:33.893Z,10.43
2023-03-22T08:56:02.167Z,10.42
2023-03-22T08:58:30.096Z,10.49
2023-03-22T09:00:57.836Z,10.57
2023-03-22T09:03:25.720Z,10.57
2023-03-22T09:05:53.426Z,10.70
2023-03-22T09:08:22.432Z,10.76
2023-03-22T09:10:52.223Z,10.86
2023-03-22T09:13:20.639Z,10.93
2023-03-22T09:15:49.099Z,10.98
2023-03-22T09:18:17.125Z,11.05
2023-03-22T09:20:45.844Z,11.15
2023-03-22T09:23:15.390Z,11.12
2023-03-22T09:25:45.692Z,11.15
2023-03-22T09:28:13.794Z,11.33
2023-03-22T09:30:41.728Z,11.39
2023-03-22T09:33:09.731Z,11.37
2023-03-22T09:35:42.561Z,11.39
2023-03-22T09:38:10.753Z,11.61
2023-03-22T09:40:44.572Z,11.69
2023-03-22T09:43:16.486Z,11.63
2023-03-22T09:45:49.130Z,11.65
2023-03-22T09:48:21.696Z,11.97
2023-03-22T09:50:52.388Z,11.99
2023-03-22T09:53:20.979Z,11.93
2023-03-22T09:55:54.017Z,12.15
2023-03-22T09:58:29.218Z,12.20
2023-03-22T10:01:01.018Z,12.06
2023-03-22T10:03:45.684Z,12.27
2023-03-22T10:06:20.238Z,12.33
2023-03-22T10:08:59.896Z,12.45
2023-03-22T10:11:40.302Z,12.57
2023-03-22T10:14:25.228Z,12.72
2023-03-22T10:16:57.122Z,12.88
2023-03-22T10:19:31.662Z,13.03
2023-03-22T10:22:02.441Z,13.16
2023-03-22T10:24:33.932Z,13.15
2023-03-22T10:27:02.128Z,13.15
2023-03-22T10:29:36.992Z,13.33
2023-03-22T10:32:15.746Z,13.23
2023-03-22T10:34:44.407Z,13.24
2023-03-22T10:37:16.332Z,13.23
2023-03-22T10:39:46.317Z,13.26
2023-03-22T10:42:16.641Z,13.30
2023-03-22T10:44:50.566Z,13.40
2023-03-22T10:47:23.853Z,13.67
2023-03-22T10:49:55.108Z,13.85
2023-03-22T10:52:39.462Z,13.82
2023-03-22T10:55:11.440Z,13.81
2023-03-22T10:57:40.001Z,13.80
2023-03-22T11:00:12.713Z,13.86
2023-03-22T11:02:48.045Z,13.93
2023-03-22T11:05:25.727Z,14.00
2023-03-22T11:07:54.561Z,13.94
2023-03-22T11:10:28.900Z,13.87
2023-03-22T11:13:12.176Z,13.80
2023-03-22T11:15:43.470Z,13.85
2023-03-22T11:18:15.702Z,13.90
2023-03-22T11:20:53.233Z,13.97
2023-03-22T11:23:22.515Z,14.07
2023-03-22T11:25:51.922Z,14.01
2023-03-22T11:28:21.597Z,14.01
2023-03-22T11:31:03.790Z,14.15
2023-03-22T11:33:32.275Z,14.15
2023-03-22T11:36:02.052Z,14.28
2023-03-22T11:38:32.070Z,14.29
2023-03-22T11:41:02.703Z,14.18
2023-03-22T11:43:35.341Z,14.24
2023-03-22T11:46:05.821Z,14.09
2023-03-22T11:48:34.034Z,14.07
2023-03-22T11:51:08.177Z,14.13
2023-03-22T11:53:40.138Z,14.19
2023-03-22T11:56:11.084Z,14.23
2023-03-22T11:58:59.486Z,14.32
2023-03-22T12:01:49.975Z,14.42
2023-03-22T12:04:22.449Z,14.49
2023-03-22T12:06:53.672Z,14.53
2023-03-22T12:09:29.327Z,14.53
2023-03-22T12:11:59.674Z,14.51
2023-03-22T12:14:30.944Z,14.52
2023-03-22T12:17:06.911Z,14.48
2023-03-22T12:19:52.945Z,14.41
2023-03-22T12:22:23.950Z,14.58
2023-03-22T12:24:51.641Z,14.71
2023-03-22T12:27:23.684Z,14.78
2023-03-22T12:29:58.453Z,14.84
2023-03-22T12:32:31.724Z,15.03
2023-03-22T12:35:16.137Z,14.97
2023-03-22T12:37:48.922Z,15.03
2023-03-22T12:40:23.011Z,15.06
2023-03-22T12:43:00.359Z,15.16
2023-03-22T12:45:30.522Z,15.14
2023-03-22T12:48:07.276Z,15.19
2023-03-22T12:50:39.681Z,15.17
2023-03-22T12:53:08.617Z,15.24
2023-03-22T12:55:39.410Z,15.41
2023-03-22T12:58:08.713Z,15.43
2023-03-22T13:00:41.352Z,15.69
2023-03-22T13:03:26.856Z,15.88
2023-03-22T13:06:03.300Z,15.82
2023-03-22T13:09:04.544Z,15.81
2023-03-22T13:11:32.292Z,15.77
2023-03-22T13:13:59.910Z,15.64
2023-03-22T13:16:54.114Z,15.67
2023-03-22T13:19:33.894Z,15.55
2023-03-22T13:22:16.448Z,15.49
2023-03-22T13:25:08.393Z,15.57
2023-03-22T13:27:38.782Z,15.55
2023-03-22T13:30:15.620Z,15.60
2023-03-22T13:32:54.623Z,15.72
2023-03-22T13:35:27.992Z,15.84
2023-03-22T13:38:02.628Z,15.77
2023-03-22T13:40:36.180Z,15.63
2023-03-22T13:43:24.606Z,15.82
2023-03-22T13:46:04.838Z,16.03
2023-03-22T13:48:42.765Z,16.24
2023-03-22T13:51:17.400Z,16.42
2023-03-22T13:53:57.086Z,16.36
2023-03-22T13:56:49.624Z,16.44
2023-03-22T13:59:21.308Z,16.41
2023-03-22T14:01:52.469Z,16.36
2023-03-22T14:04:26.637Z,16.33
2023-03-22T14:06:59.855Z,16.38
2023-03-22T14:09:32.364Z,16.31
2023-03-22T14:12:06.539Z,16.18
2023-03-22T14:14:42.146Z,16.20
2023-03-22T14:17:18.999Z,16.33
2023-03-22T14:19:47.435Z,16.29
